sensor_id;sensor_type;location;lat;lon;timestamp;temperature;humidity
18712;DHT22;9485;49.386;8.674;2022-09-03T00:04:26;23.60;35.30
18712;DHT22;9485;49.386;8.674;2022-09-03T00:09:56;23.60;35.50
18712;DHT22;9485;49.386;8.674;2022-09-03T00:15:22;23.60;35.50
18712;DHT22;9485;49.386;8.674;2022-09-03T00:20:49;23.60;35.50
18712;DHT22;9485;49.386;8.674;2022-09-03T00:26:23;23.60;35.80
18712;DHT22;9485;49.386;8.674;2022-09-03T00:31:50;23.60;35.80
18712;DHT22;9485;49.386;8.674;2022-09-03T00:37:17;23.60;35.90
18712;DHT22;9485;49.386;8.674;2022-09-03T00:42:42;23.60;35.90
18712;DHT22;9485;49.386;8.674;2022-09-03T00:48:20;23.50;35.90
18712;DHT22;9485;49.386;8.674;2022-09-03T00:53:53;23.50;35.90
18712;DHT22;9485;49.386;8.674;2022-09-03T00:59:31;23.50;36.40
18712;DHT22;9485;49.386;8.674;2022-09-03T01:05:08;23.50;36.60
18712;DHT22;9485;49.386;8.674;2022-09-03T01:10:44;23.40;36.50
18712;DHT22;9485;49.386;8.674;2022-09-03T01:16:17;23.30;36.70
18712;DHT22;9485;49.386;8.674;2022-09-03T01:22:05;23.30;36.60
18712;DHT22;9485;49.386;8.674;2022-09-03T01:27:48;23.30;36.70
18712;DHT22;9485;49.386;8.674;2022-09-03T01:33:26;23.30;36.60
18712;DHT22;9485;49.386;8.674;2022-09-03T01:38:57;23.30;36.60
18712;DHT22;9485;49.386;8.674;2022-09-03T01:44:30;23.20;36.50
18712;DHT22;9485;49.386;8.674;2022-09-03T01:50:04;23.30;36.70
18712;DHT22;9485;49.386;8.674;2022-09-03T01:55:32;23.30;36.60
18712;DHT22;9485;49.386;8.674;2022-09-03T02:01:10;23.30;36.70
18712;DHT22;9485;49.386;8.674;2022-09-03T02:06:36;23.20;36.70
18712;DHT22;9485;49.386;8.674;2022-09-03T02:12:02;23.20;36.60
18712;DHT22;9485;49.386;8.674;2022-09-03T02:17:29;23.20;36.90
18712;DHT22;9485;49.386;8.674;2022-09-03T02:22:51;23.10;36.70
18712;DHT22;9485;49.386;8.674;2022-09-03T02:28:13;23.10;36.90
18712;DHT22;9485;49.386;8.674;2022-09-03T02:33:37;23.10;37.00
18712;DHT22;9485;49.386;8.674;2022-09-03T02:39:04;23.10;37.20
18712;DHT22;9485;49.386;8.674;2022-09-03T02:44:29;23.10;37.00
18712;DHT22;9485;49.386;8.674;2022-09-03T02:49:53;23.10;37.30
18712;DHT22;9485;49.386;8.674;2022-09-03T02:55:14;23.10;37.20
18712;DHT22;9485;49.386;8.674;2022-09-03T03:00:35;23.00;37.70
18712;DHT22;9485;49.386;8.674;2022-09-03T03:06:00;23.00;37.10
18712;DHT22;9485;49.386;8.674;2022-09-03T03:11:24;23.00;37.30
18712;DHT22;9485;49.386;8.674;2022-09-03T03:16:45;22.90;37.30
18712;DHT22;9485;49.386;8.674;2022-09-03T03:22:07;22.90;37.30
18712;DHT22;9485;49.386;8.674;2022-09-03T03:27:27;22.80;37.40
18712;DHT22;9485;49.386;8.674;2022-09-03T03:32:48;22.80;37.60
18712;DHT22;9485;49.386;8.674;2022-09-03T03:38:10;22.70;37.70
18712;DHT22;9485;49.386;8.674;2022-09-03T03:43:31;22.70;37.90
18712;DHT22;9485;49.386;8.674;2022-09-03T03:48:51;22.70;37.80
18712;DHT22;9485;49.386;8.674;2022-09-03T03:54:13;22.60;37.90
18712;DHT22;9485;49.386;8.674;2022-09-03T03:59:34;22.60;38.00
18712;DHT22;9485;49.386;8.674;2022-09-03T04:04:55;22.60;38.10
18712;DHT22;9485;49.386;8.674;2022-09-03T04:10:17;22.60;38.20
18712;DHT22;9485;49.386;8.674;2022-09-03T04:15:38;22.50;38.30
18712;DHT22;9485;49.386;8.674;2022-09-03T04:21:00;22.50;38.30
18712;DHT22;9485;49.386;8.674;2022-09-03T04:26:26;22.30;38.40
18712;DHT22;9485;49.386;8.674;2022-09-03T04:31:49;22.40;38.60
18712;DHT22;9485;49.386;8.674;2022-09-03T04:37:27;22.40;38.60
18712;DHT22;9485;49.386;8.674;2022-09-03T04:42:49;22.30;38.80
18712;DHT22;9485;49.386;8.674;2022-09-03T04:48:10;22.30;39.20
18712;DHT22;9485;49.386;8.674;2022-09-03T04:53:32;22.20;39.60
18712;DHT22;9485;49.386;8.674;2022-09-03T04:58:57;22.10;40.10
18712;DHT22;9485;49.386;8.674;2022-09-03T05:04:19;22.00;40.80
18712;DHT22;9485;49.386;8.674;2022-09-03T05:09:39;21.80;41.10
18712;DHT22;9485;49.386;8.674;2022-09-03T05:15:02;21.70;41.40
18712;DHT22;9485;49.386;8.674;2022-09-03T05:20:23;21.60;41.80
18712;DHT22;9485;49.386;8.674;2022-09-03T05:25:54;21.50;41.60
18712;DHT22;9485;49.386;8.674;2022-09-03T05:31:19;21.50;42.60
18712;DHT22;9485;49.386;8.674;2022-09-03T05:36:41;21.50;42.30
18712;DHT22;9485;49.386;8.674;2022-09-03T05:42:01;21.50;42.10
18712;DHT22;9485;49.386;8.674;2022-09-03T05:47:23;21.50;42.30
18712;DHT22;9485;49.386;8.674;2022-09-03T05:52:44;21.60;42.30
18712;DHT22;9485;49.386;8.674;2022-09-03T05:58:05;21.60;42.30
18712;DHT22;9485;49.386;8.674;2022-09-03T06:03:27;21.70;42.60
18712;DHT22;9485;49.386;8.674;2022-09-03T06:08:48;21.70;42.70
18712;DHT22;9485;49.386;8.674;2022-09-03T06:14:11;21.80;43.00
18712;DHT22;9485;49.386;8.674;2022-09-03T06:19:34;21.90;43.40
18712;DHT22;9485;49.386;8.674;2022-09-03T06:24:55;22.00;43.50
18712;DHT22;9485;49.386;8.674;2022-09-03T06:30:16;22.20;43.60
18712;DHT22;9485;49.386;8.674;2022-09-03T06:35:38;22.30;43.60
18712;DHT22;9485;49.386;8.674;2022-09-03T06:41:02;22.30;44.90
18712;DHT22;9485;49.386;8.674;2022-09-03T06:46:24;22.20;45.40
18712;DHT22;9485;49.386;8.674;2022-09-03T06:51:46;21.90;46.30
18712;DHT22;9485;49.386;8.674;2022-09-03T06:57:07;21.50;47.40
18712;DHT22;9485;49.386;8.674;2022-09-03T07:02:27;21.20;48.30
18712;DHT22;9485;49.386;8.674;2022-09-03T07:07:49;20.80;49.40
18712;DHT22;9485;49.386;8.674;2022-09-03T07:13:09;20.50;50.70
18712;DHT22;9485;49.386;8.674;2022-09-03T07:18:31;20.30;51.70
18712;DHT22;9485;49.386;8.674;2022-09-03T07:23:55;20.10;52.80
18712;DHT22;9485;49.386;8.674;2022-09-03T07:29:16;20.00;54.00
18712;DHT22;9485;49.386;8.674;2022-09-03T07:34:39;19.90;54.40
18712;DHT22;9485;49.386;8.674;2022-09-03T07:40:01;19.80;55.60
18712;DHT22;9485;49.386;8.674;2022-09-03T07:45:22;19.70;57.20
18712;DHT22;9485;49.386;8.674;2022-09-03T07:50:42;19.70;58.10
18712;DHT22;9485;49.386;8.674;2022-09-03T07:56:08;19.80;59.00
18712;DHT22;9485;49.386;8.674;2022-09-03T08:01:30;19.90;60.20
18712;DHT22;9485;49.386;8.674;2022-09-03T08:06:52;19.90;61.10
18712;DHT22;9485;49.386;8.674;2022-09-03T08:12:15;20.00;61.80
18712;DHT22;9485;49.386;8.674;2022-09-03T08:17:35;20.00;62.60
18712;DHT22;9485;49.386;8.674;2022-09-03T08:23:00;20.00;62.90
18712;DHT22;9485;49.386;8.674;2022-09-03T08:28:22;19.90;63.90
18712;DHT22;9485;49.386;8.674;2022-09-03T08:33:45;19.80;64.50
18712;DHT22;9485;49.386;8.674;2022-09-03T08:39:10;19.70;65.50
18712;DHT22;9485;49.386;8.674;2022-09-03T08:44:38;19.60;65.90
18712;DHT22;9485;49.386;8.674;2022-09-03T08:50:08;19.60;66.70
18712;DHT22;9485;49.386;8.674;2022-09-03T08:55:39;19.40;66.60
18712;DHT22;9485;49.386;8.674;2022-09-03T09:01:16;19.30;66.90
18712;DHT22;9485;49.386;8.674;2022-09-03T09:06:47;19.10;67.50
18712;DHT22;9485;49.386;8.674;2022-09-03T09:12:19;19.00;67.90
18712;DHT22;9485;49.386;8.674;2022-09-03T09:18:02;18.90;68.50
18712;DHT22;9485;49.386;8.674;2022-09-03T09:23:33;18.80;69.90
18712;DHT22;9485;49.386;8.674;2022-09-03T09:29:03;18.80;70.10
18712;DHT22;9485;49.386;8.674;2022-09-03T09:34:33;18.90;71.40
18712;DHT22;9485;49.386;8.674;2022-09-03T09:39:57;19.10;73.10
18712;DHT22;9485;49.386;8.674;2022-09-03T09:45:19;19.40;73.70
18712;DHT22;9485;49.386;8.674;2022-09-03T09:50:43;19.80;74.40
18712;DHT22;9485;49.386;8.674;2022-09-03T09:56:04;20.10;74.30
18712;DHT22;9485;49.386;8.674;2022-09-03T10:01:26;20.20;74.00
18712;DHT22;9485;49.386;8.674;2022-09-03T10:06:54;20.40;73.90
18712;DHT22;9485;49.386;8.674;2022-09-03T10:12:21;20.50;74.80
18712;DHT22;9485;49.386;8.674;2022-09-03T10:17:54;20.90;76.50
18712;DHT22;9485;49.386;8.674;2022-09-03T10:23:23;21.50;76.40
18712;DHT22;9485;49.386;8.674;2022-09-03T10:28:50;21.90;74.60
18712;DHT22;9485;49.386;8.674;2022-09-03T10:34:17;22.10;74.50
18712;DHT22;9485;49.386;8.674;2022-09-03T10:40:08;22.30;74.80
18712;DHT22;9485;49.386;8.674;2022-09-03T10:45:39;22.70;76.10
18712;DHT22;9485;49.386;8.674;2022-09-03T10:51:13;23.40;76.80
18712;DHT22;9485;49.386;8.674;2022-09-03T10:56:45;24.50;76.20
18712;DHT22;9485;49.386;8.674;2022-09-03T11:02:27;25.80;74.50
18712;DHT22;9485;49.386;8.674;2022-09-03T11:08:08;27.10;70.30
18712;DHT22;9485;49.386;8.674;2022-09-03T11:13:40;27.80;67.40
18712;DHT22;9485;49.386;8.674;2022-09-03T11:19:08;28.10;66.60
18712;DHT22;9485;49.386;8.674;2022-09-03T11:24:37;28.50;64.60
18712;DHT22;9485;49.386;8.674;2022-09-03T11:30:03;28.70;63.30
18712;DHT22;9485;49.386;8.674;2022-09-03T11:35:36;28.90;61.40
18712;DHT22;9485;49.386;8.674;2022-09-03T11:41:03;29.10;62.60
18712;DHT22;9485;49.386;8.674;2022-09-03T11:46:33;29.70;61.90
18712;DHT22;9485;49.386;8.674;2022-09-03T11:51:58;30.20;61.00
18712;DHT22;9485;49.386;8.674;2022-09-03T11:57:24;30.50;58.90
18712;DHT22;9485;49.386;8.674;2022-09-03T12:02:51;30.40;57.70
18712;DHT22;9485;49.386;8.674;2022-09-03T12:14:33;29.70;56.60
18712;DHT22;9485;49.386;8.674;2022-09-03T12:20:02;29.70;59.20
18712;DHT22;9485;49.386;8.674;2022-09-03T12:25:31;29.90;58.90
18712;DHT22;9485;49.386;8.674;2022-09-03T12:30:52;30.00;59.70
18712;DHT22;9485;49.386;8.674;2022-09-03T12:36:14;30.10;59.80
18712;DHT22;9485;49.386;8.674;2022-09-03T12:41:35;30.30;59.20
18712;DHT22;9485;49.386;8.674;2022-09-03T12:47:00;30.60;59.50
18712;DHT22;9485;49.386;8.674;2022-09-03T12:52:31;30.70;58.20
18712;DHT22;9485;49.386;8.674;2022-09-03T12:58:01;30.60;57.90
18712;DHT22;9485;49.386;8.674;2022-09-03T13:03:28;30.60;57.30
18712;DHT22;9485;49.386;8.674;2022-09-03T13:08:57;30.80;58.70
18712;DHT22;9485;49.386;8.674;2022-09-03T13:14:20;30.90;56.50
18712;DHT22;9485;49.386;8.674;2022-09-03T13:19:49;30.80;57.30
18712;DHT22;9485;49.386;8.674;2022-09-03T13:25:22;30.70;56.80
18712;DHT22;9485;49.386;8.674;2022-09-03T13:30:54;30.50;56.30
18712;DHT22;9485;49.386;8.674;2022-09-03T13:36:21;30.30;56.30
18712;DHT22;9485;49.386;8.674;2022-09-03T13:41:48;30.10;57.00
18712;DHT22;9485;49.386;8.674;2022-09-03T13:47:20;30.00;58.00
18712;DHT22;9485;49.386;8.674;2022-09-03T13:52:51;29.90;57.50
18712;DHT22;9485;49.386;8.674;2022-09-03T13:58:24;29.90;57.80
18712;DHT22;9485;49.386;8.674;2022-09-03T14:03:51;29.70;57.30
18712;DHT22;9485;49.386;8.674;2022-09-03T14:09:29;29.60;59.10
18712;DHT22;9485;49.386;8.674;2022-09-03T14:15:04;29.70;57.30
18712;DHT22;9485;49.386;8.674;2022-09-03T14:20:40;29.90;59.30
18712;DHT22;9485;49.386;8.674;2022-09-03T14:26:15;30.20;59.10
18712;DHT22;9485;49.386;8.674;2022-09-03T14:31:53;30.50;56.70
18712;DHT22;9485;49.386;8.674;2022-09-03T14:37:37;30.70;56.50
18712;DHT22;9485;49.386;8.674;2022-09-03T14:43:19;30.70;56.40
18712;DHT22;9485;49.386;8.674;2022-09-03T14:49:15;30.60;56.00
18712;DHT22;9485;49.386;8.674;2022-09-03T14:55:03;30.20;54.40
18712;DHT22;9485;49.386;8.674;2022-09-03T15:00:40;29.90;55.90
18712;DHT22;9485;49.386;8.674;2022-09-03T15:06:17;29.70;57.90
18712;DHT22;9485;49.386;8.674;2022-09-03T15:11:48;29.60;57.10
18712;DHT22;9485;49.386;8.674;2022-09-03T15:17:24;29.30;57.90
18712;DHT22;9485;49.386;8.674;2022-09-03T15:23:18;29.10;57.80
18712;DHT22;9485;49.386;8.674;2022-09-03T15:28:52;28.70;57.60
18712;DHT22;9485;49.386;8.674;2022-09-03T15:34:43;28.30;58.60
18712;DHT22;9485;49.386;8.674;2022-09-03T15:40:28;28.10;57.70
18712;DHT22;9485;49.386;8.674;2022-09-03T15:45:53;27.80;58.00
18712;DHT22;9485;49.386;8.674;2022-09-03T15:51:21;27.60;59.50
18712;DHT22;9485;49.386;8.674;2022-09-03T15:56:51;27.40;60.00
18712;DHT22;9485;49.386;8.674;2022-09-03T16:02:17;27.20;60.20
18712;DHT22;9485;49.386;8.674;2022-09-03T16:08:07;27.00;60.80
18712;DHT22;9485;49.386;8.674;2022-09-03T16:13:53;26.80;59.60
18712;DHT22;9485;49.386;8.674;2022-09-03T16:19:23;26.60;61.30
18712;DHT22;9485;49.386;8.674;2022-09-03T16:24:50;26.30;62.50
18712;DHT22;9485;49.386;8.674;2022-09-03T16:30:23;26.20;63.30
18712;DHT22;9485;49.386;8.674;2022-09-03T16:35:59;26.10;63.20
18712;DHT22;9485;49.386;8.674;2022-09-03T16:41:32;25.90;63.50
18712;DHT22;9485;49.386;8.674;2022-09-03T16:47:01;25.80;64.20
18712;DHT22;9485;49.386;8.674;2022-09-03T16:52:39;25.70;64.60
18712;DHT22;9485;49.386;8.674;2022-09-03T16:58:17;25.50;65.30
18712;DHT22;9485;49.386;8.674;2022-09-03T17:03:56;25.40;65.40
18712;DHT22;9485;49.386;8.674;2022-09-03T17:09:39;25.40;65.60
18712;DHT22;9485;49.386;8.674;2022-09-03T17:15:29;25.20;65.40
18712;DHT22;9485;49.386;8.674;2022-09-03T17:21:11;25.20;65.40
18712;DHT22;9485;49.386;8.674;2022-09-03T17:26:46;25.20;65.90
18712;DHT22;9485;49.386;8.674;2022-09-03T17:32:24;25.10;66.30
18712;DHT22;9485;49.386;8.674;2022-09-03T17:38:09;25.00;66.30
18712;DHT22;9485;49.386;8.674;2022-09-03T17:43:44;25.00;67.60
18712;DHT22;9485;49.386;8.674;2022-09-03T17:49:13;25.00;67.20
18712;DHT22;9485;49.386;8.674;2022-09-03T17:54:45;25.00;67.50
18712;DHT22;9485;49.386;8.674;2022-09-03T18:00:19;25.00;67.60
18712;DHT22;9485;49.386;8.674;2022-09-03T18:05:44;24.90;68.00
18712;DHT22;9485;49.386;8.674;2022-09-03T18:11:12;24.80;67.90
18712;DHT22;9485;49.386;8.674;2022-09-03T18:16:41;24.70;67.30
18712;DHT22;9485;49.386;8.674;2022-09-03T18:22:08;24.60;67.80
18712;DHT22;9485;49.386;8.674;2022-09-03T18:27:53;24.50;68.20
18712;DHT22;9485;49.386;8.674;2022-09-03T18:33:35;24.40;68.30
18712;DHT22;9485;49.386;8.674;2022-09-03T18:39:23;24.30;68.70
18712;DHT22;9485;49.386;8.674;2022-09-03T18:45:12;24.10;68.70
18712;DHT22;9485;49.386;8.674;2022-09-03T18:51:05;24.00;68.80
18712;DHT22;9485;49.386;8.674;2022-09-03T18:56:50;23.80;69.70
18712;DHT22;9485;49.386;8.674;2022-09-03T19:02:35;23.70;70.00
18712;DHT22;9485;49.386;8.674;2022-09-03T19:08:24;23.50;70.10
18712;DHT22;9485;49.386;8.674;2022-09-03T19:14:18;23.40;70.70
18712;DHT22;9485;49.386;8.674;2022-09-03T19:20:09;23.20;70.90
18712;DHT22;9485;49.386;8.674;2022-09-03T19:25:55;23.10;71.30
18712;DHT22;9485;49.386;8.674;2022-09-03T19:31:44;23.00;71.50
18712;DHT22;9485;49.386;8.674;2022-09-03T19:37:36;22.90;71.40
18712;DHT22;9485;49.386;8.674;2022-09-03T19:43:26;22.80;71.40
18712;DHT22;9485;49.386;8.674;2022-09-03T19:49:21;22.70;72.20
18712;DHT22;9485;49.386;8.674;2022-09-03T19:55:11;22.60;72.50
18712;DHT22;9485;49.386;8.674;2022-09-03T20:00:53;22.50;72.60
18712;DHT22;9485;49.386;8.674;2022-09-03T20:06:34;22.50;73.00
18712;DHT22;9485;49.386;8.674;2022-09-03T20:12:16;22.40;73.30
18712;DHT22;9485;49.386;8.674;2022-09-03T20:17:47;22.20;73.30
18712;DHT22;9485;49.386;8.674;2022-09-03T20:23:19;22.20;73.30
18712;DHT22;9485;49.386;8.674;2022-09-03T20:29:00;22.10;73.50
18712;DHT22;9485;49.386;8.674;2022-09-03T20:34:40;22.00;73.90
18712;DHT22;9485;49.386;8.674;2022-09-03T20:40:18;22.00;74.60
18712;DHT22;9485;49.386;8.674;2022-09-03T20:45:59;21.90;74.80
18712;DHT22;9485;49.386;8.674;2022-09-03T20:51:35;21.90;75.00
18712;DHT22;9485;49.386;8.674;2022-09-03T20:57:13;21.90;75.20
18712;DHT22;9485;49.386;8.674;2022-09-03T21:03:03;21.80;75.20
18712;DHT22;9485;49.386;8.674;2022-09-03T21:08:47;21.80;75.20
18712;DHT22;9485;49.386;8.674;2022-09-03T21:14:26;21.70;74.80
18712;DHT22;9485;49.386;8.674;2022-09-03T21:20:02;21.60;74.90
18712;DHT22;9485;49.386;8.674;2022-09-03T21:25:35;21.60;75.20
18712;DHT22;9485;49.386;8.674;2022-09-03T21:31:02;21.50;75.50
18712;DHT22;9485;49.386;8.674;2022-09-03T21:36:32;21.40;75.30
18712;DHT22;9485;49.386;8.674;2022-09-03T21:41:59;21.30;75.50
18712;DHT22;9485;49.386;8.674;2022-09-03T21:47:27;21.20;76.10
18712;DHT22;9485;49.386;8.674;2022-09-03T21:52:57;21.10;76.60
18712;DHT22;9485;49.386;8.674;2022-09-03T21:58:29;21.20;77.10
18712;DHT22;9485;49.386;8.674;2022-09-03T22:04:01;21.20;77.50
18712;DHT22;9485;49.386;8.674;2022-09-03T22:09:28;21.20;77.70
18712;DHT22;9485;49.386;8.674;2022-09-03T22:14:54;21.20;77.70
18712;DHT22;9485;49.386;8.674;2022-09-03T22:20:15;21.20;77.70
18712;DHT22;9485;49.386;8.674;2022-09-03T22:25:42;21.30;77.70
18712;DHT22;9485;49.386;8.674;2022-09-03T22:31:16;21.20;77.60
18712;DHT22;9485;49.386;8.674;2022-09-03T22:36:47;21.20;77.50
18712;DHT22;9485;49.386;8.674;2022-09-03T22:42:22;21.10;77.10
18712;DHT22;9485;49.386;8.674;2022-09-03T22:48:08;21.10;77.20
18712;DHT22;9485;49.386;8.674;2022-09-03T22:53:55;21.00;77.30
18712;DHT22;9485;49.386;8.674;2022-09-03T22:59:29;20.90;77.40
18712;DHT22;9485;49.386;8.674;2022-09-03T23:05:00;20.80;77.60
18712;DHT22;9485;49.386;8.674;2022-09-03T23:10:28;20.70;77.60
18712;DHT22;9485;49.386;8.674;2022-09-03T23:16:01;20.70;77.90
18712;DHT22;9485;49.386;8.674;2022-09-03T23:21:32;20.50;77.50
18712;DHT22;9485;49.386;8.674;2022-09-03T23:27:01;20.50;78.10
18712;DHT22;9485;49.386;8.674;2022-09-03T23:32:27;20.40;78.40
18712;DHT22;9485;49.386;8.674;2022-09-03T23:38:00;20.30;78.40
18712;DHT22;9485;49.386;8.674;2022-09-03T23:44:00;20.30;78.60
18712;DHT22;9485;49.386;8.674;2022-09-03T23:49:40;20.30;78.70
18712;DHT22;9485;49.386;8.674;2022-09-03T23:55:18;20.20;78.70
